createdAt,value
2018-10-06T00:01:36.989Z,12.63
2018-10-06T00:04:05.043Z,12.97
2018-10-06T00:06:33.081Z,11.77
2018-10-06T00:09:01.181Z,16.07
2018-10-06T00:11:29.243Z,12.93
2018-10-06T00:13:57.334Z,10.30
2018-10-06T00:16:25.377Z,10.40
2018-10-06T00:18:53.440Z,11.03
2018-10-06T00:21:21.618Z,14.10
2018-10-06T00:23:49.677Z,11.40
2018-10-06T00:26:17.886Z,11.43
2018-10-06T00:28:45.954Z,12.87
2018-10-06T00:31:14.020Z,12.80
2018-10-06T00:33:42.068Z,12.10
2018-10-06T00:36:10.139Z,11.87
2018-10-06T00:38:38.185Z,13.00
2018-10-06T00:41:07.201Z,12.03
2018-10-06T00:43:35.225Z,13.07
2018-10-06T00:46:03.325Z,10.97
2018-10-06T00:48:31.402Z,11.30
2018-10-06T00:50:59.453Z,12.80
2018-10-06T00:53:27.489Z,13.37
2018-10-06T00:55:55.555Z,16.20
2018-10-06T00:58:23.598Z,12.60
2018-10-06T01:00:51.740Z,10.40
2018-10-06T01:03:19.874Z,11.90
2018-10-06T01:05:47.972Z,11.60
2018-10-06T01:08:16.056Z,15.63
2018-10-06T01:10:44.165Z,12.53
2018-10-06T01:13:12.226Z,14.40
2018-10-06T01:15:40.282Z,11.00
2018-10-06T01:18:08.343Z,13.93
2018-10-06T01:20:36.425Z,11.37
2018-10-06T01:23:04.531Z,13.67
2018-10-06T01:25:32.636Z,11.10
2018-10-06T01:28:00.686Z,11.50
2018-10-06T01:30:28.709Z,15.17
2018-10-06T01:32:56.765Z,17.33
2018-10-06T01:35:24.850Z,13.20
2018-10-06T01:37:59.029Z,10.33
2018-10-06T01:40:27.102Z,14.37
2018-10-06T01:42:55.136Z,14.13
2018-10-06T01:45:23.187Z,12.00
2018-10-06T01:47:51.213Z,12.67
2018-10-06T01:50:25.868Z,13.23
2018-10-06T01:52:53.917Z,10.10
2018-10-06T01:55:22.031Z,12.73
2018-10-06T01:57:50.093Z,10.20
2018-10-06T02:00:18.159Z,10.73
2018-10-06T02:02:46.269Z,13.23
2018-10-06T02:05:14.318Z,16.03
2018-10-06T02:07:42.354Z,10.63
2018-10-06T02:10:10.406Z,17.50
2018-10-06T02:12:38.481Z,12.27
2018-10-06T02:15:06.534Z,12.27
2018-10-06T02:17:34.565Z,12.27
2018-10-06T02:20:02.627Z,12.10
2018-10-06T02:22:30.691Z,11.77
2018-10-06T02:24:58.736Z,15.23
2018-10-06T02:27:26.793Z,10.00
2018-10-06T02:29:54.853Z,13.50
2018-10-06T02:32:22.915Z,12.70
2018-10-06T02:34:50.963Z,14.47
2018-10-06T02:37:18.985Z,11.87
2018-10-06T02:39:47.059Z,12.37
2018-10-06T02:42:15.122Z,11.83
2018-10-06T02:44:43.208Z,12.33
2018-10-06T02:47:11.270Z,15.63
2018-10-06T02:49:39.349Z,11.83
2018-10-06T02:52:07.370Z,14.77
2018-10-06T02:54:35.463Z,13.13
2018-10-06T02:57:03.517Z,11.43
2018-10-06T02:59:31.588Z,18.57
2018-10-06T03:01:59.657Z,11.57
2018-10-06T03:04:27.718Z,11.57
2018-10-06T03:06:55.769Z,11.00
2018-10-06T03:09:23.878Z,12.17
2018-10-06T03:11:51.978Z,10.93
2018-10-06T03:14:20.024Z,11.03
2018-10-06T03:16:48.073Z,11.70
2018-10-06T03:19:16.123Z,13.47
2018-10-06T03:21:44.190Z,13.90
2018-10-06T03:24:12.286Z,18.07
2018-10-06T03:26:40.334Z,15.20
2018-10-06T03:29:08.374Z,12.07
2018-10-06T03:31:36.438Z,11.53
2018-10-06T03:34:04.503Z,12.53
2018-10-06T03:36:32.588Z,11.40
2018-10-06T03:39:00.601Z,15.67
2018-10-06T03:41:28.666Z,11.70
2018-10-06T03:43:56.722Z,11.47
2018-10-06T03:46:24.757Z,13.90
2018-10-06T03:48:52.859Z,16.63
2018-10-06T03:51:20.923Z,12.03
2018-10-06T03:53:49.024Z,14.37
2018-10-06T03:56:17.125Z,13.53
2018-10-06T03:58:45.213Z,15.77
2018-10-06T04:01:13.254Z,15.60
2018-10-06T04:03:41.319Z,12.10
2018-10-06T04:06:09.379Z,12.57
2018-10-06T04:08:37.462Z,13.03
2018-10-06T04:11:05.707Z,14.00
2018-10-06T04:13:33.815Z,11.00
2018-10-06T04:16:01.883Z,12.77
2018-10-06T04:18:29.931Z,13.83
2018-10-06T04:20:57.977Z,13.50
2018-10-06T04:23:26.008Z,12.53
2018-10-06T04:25:54.069Z,12.97
2018-10-06T04:28:22.159Z,13.50
2018-10-06T04:30:50.131Z,10.57
2018-10-06T04:33:18.222Z,11.93
2018-10-06T04:35:46.290Z,13.73
2018-10-06T04:38:14.396Z,13.80
2018-10-06T04:40:42.479Z,12.20
2018-10-06T04:43:11.162Z,10.83
2018-10-06T04:45:39.246Z,13.37
2018-10-06T04:48:07.413Z,12.67
2018-10-06T04:50:35.458Z,14.30
2018-10-06T04:53:03.534Z,12.03
2018-10-06T04:55:31.602Z,11.13
2018-10-06T04:57:59.683Z,13.13
2018-10-06T05:00:27.739Z,15.53
2018-10-06T05:02:55.810Z,16.13
2018-10-06T05:05:23.882Z,12.90
2018-10-06T05:07:51.959Z,12.13
2018-10-06T05:10:20.062Z,13.97
2018-10-06T05:12:48.110Z,10.97
2018-10-06T05:15:16.191Z,12.43
2018-10-06T05:17:44.363Z,13.53
2018-10-06T05:20:12.464Z,13.73
2018-10-06T05:22:40.513Z,9.87
2018-10-06T05:25:08.561Z,13.77
2018-10-06T05:27:36.660Z,12.77
2018-10-06T05:30:04.991Z,15.13
2018-10-06T05:32:33.071Z,12.73
2018-10-06T05:35:01.133Z,10.40
2018-10-06T05:37:29.223Z,14.97
2018-10-06T05:39:57.255Z,12.23
2018-10-06T05:42:25.294Z,11.40
2018-10-06T05:44:53.338Z,12.47
2018-10-06T05:47:21.408Z,13.63
2018-10-06T05:49:49.469Z,14.23
2018-10-06T05:52:17.570Z,15.63
2018-10-06T05:54:45.641Z,15.83
2018-10-06T05:57:13.678Z,16.40
2018-10-06T05:59:41.768Z,11.23
2018-10-06T06:02:09.797Z,13.50
2018-10-06T06:04:37.813Z,11.43
2018-10-06T06:07:05.854Z,15.23
2018-10-06T06:09:33.903Z,14.40
2018-10-06T06:12:02.007Z,14.53
2018-10-06T06:14:30.108Z,18.20
2018-10-06T06:16:58.245Z,14.07
2018-10-06T06:19:26.296Z,12.73
2018-10-06T06:21:54.318Z,22.20
2018-10-06T06:24:22.470Z,17.70
2018-10-06T06:26:50.573Z,16.77
2018-10-06T06:29:25.157Z,18.47
2018-10-06T06:31:53.309Z,16.87
2018-10-06T06:34:21.501Z,16.93
2018-10-06T06:36:49.616Z,13.20
2018-10-06T06:39:17.798Z,14.00
2018-10-06T06:41:45.916Z,14.90
2018-10-06T06:44:14.142Z,17.70
2018-10-06T06:46:42.246Z,11.00
2018-10-06T06:49:10.370Z,13.30
2018-10-06T06:51:38.489Z,10.47
2018-10-06T06:54:06.537Z,12.60
2018-10-06T06:56:34.628Z,22.00
2018-10-06T06:59:02.701Z,10.33
2018-10-06T07:01:30.802Z,11.93
2018-10-06T07:03:58.857Z,14.10
2018-10-06T07:06:26.935Z,10.87
2018-10-06T07:08:55.008Z,16.13
2018-10-06T07:11:23.075Z,11.17
2018-10-06T07:13:51.166Z,12.30
2018-10-06T07:16:19.186Z,11.47
2018-10-06T07:18:47.327Z,10.07
2018-10-06T07:21:15.373Z,12.93
2018-10-06T07:23:43.390Z,10.83
2018-10-06T07:26:11.450Z,13.40
2018-10-06T07:28:39.625Z,12.60
2018-10-06T07:31:07.670Z,12.57
2018-10-06T07:33:35.734Z,13.50
2018-10-06T07:36:03.827Z,11.67
2018-10-06T07:38:31.966Z,15.27
2018-10-06T07:41:00.046Z,11.23
2018-10-06T07:43:28.157Z,9.53
2018-10-06T07:45:56.287Z,11.60
2018-10-06T07:48:24.414Z,14.63
2018-10-06T07:50:52.500Z,14.43
2018-10-06T07:53:20.603Z,11.90
2018-10-06T07:55:48.657Z,11.20
2018-10-06T07:58:16.835Z,13.30
2018-10-06T08:00:44.905Z,11.67
2018-10-06T08:03:12.998Z,12.93
2018-10-06T08:05:41.047Z,12.53
2018-10-06T08:08:09.121Z,11.60
2018-10-06T08:10:37.283Z,15.67
2018-10-06T08:13:05.586Z,9.60
2018-10-06T08:15:33.650Z,10.00
2018-10-06T08:18:01.713Z,10.37
2018-10-06T08:20:29.765Z,11.23
2018-10-06T08:22:57.867Z,10.60
2018-10-06T08:25:27.943Z,14.33
2018-10-06T08:27:55.979Z,10.37
2018-10-06T08:30:26.081Z,10.57
2018-10-06T08:32:54.134Z,10.63
2018-10-06T08:35:22.219Z,10.77
2018-10-06T08:40:28.823Z,10.33
2018-10-06T08:42:56.918Z,10.13
2018-10-06T08:45:24.979Z,11.00
2018-10-06T08:47:53.082Z,11.60
2018-10-06T08:50:21.314Z,7.77
2018-10-06T08:52:49.515Z,9.73
2018-10-06T08:55:17.914Z,10.40
2018-10-06T08:57:47.812Z,8.53
2018-10-06T09:00:16.074Z,7.00
2018-10-06T09:02:44.190Z,13.03
2018-10-06T09:05:12.236Z,11.23
2018-10-06T09:07:40.297Z,10.23
2018-10-06T09:10:09.265Z,9.00
2018-10-06T09:12:37.618Z,8.80
2018-10-06T09:15:06.436Z,8.87
2018-10-06T09:17:34.809Z,7.23
2018-10-06T09:20:17.474Z,11.57
2018-10-06T09:22:45.866Z,8.37
2018-10-06T09:25:28.777Z,10.47
2018-10-06T09:27:58.265Z,9.43
2018-10-06T09:30:26.599Z,9.13
2018-10-06T09:32:54.925Z,10.20
2018-10-06T09:35:23.292Z,9.00
2018-10-06T09:37:51.706Z,12.00
2018-10-06T09:40:20.052Z,12.47
2018-10-06T09:42:48.486Z,8.97
2018-10-06T09:45:16.666Z,10.67
2018-10-06T09:47:45.035Z,14.17
2018-10-06T09:50:13.418Z,12.90
2018-10-06T09:52:42.327Z,10.67
2018-10-06T09:55:10.663Z,9.10
2018-10-06T09:57:38.941Z,9.77
2018-10-06T10:00:07.685Z,7.03
2018-10-06T10:02:41.550Z,11.53
2018-10-06T10:05:15.354Z,8.67
2018-10-06T10:07:43.967Z,10.90
2018-10-06T10:10:12.337Z,7.60
2018-10-06T10:12:40.755Z,11.60
2018-10-06T10:15:09.038Z,7.33
2018-10-06T10:17:37.543Z,14.03
2018-10-06T10:20:05.541Z,10.50
2018-10-06T10:22:33.626Z,10.37
2018-10-06T10:25:01.674Z,13.80
2018-10-06T10:27:29.738Z,8.60
2018-10-06T10:29:57.825Z,7.43
2018-10-06T10:32:25.890Z,8.33
2018-10-06T10:34:54.015Z,8.67
2018-10-06T10:37:22.079Z,8.10
2018-10-06T10:39:50.281Z,11.20
2018-10-06T10:42:18.352Z,12.20
2018-10-06T10:44:46.454Z,9.67
2018-10-06T10:47:14.769Z,7.53
2018-10-06T10:49:42.853Z,9.67
2018-10-06T10:52:10.989Z,11.87
2018-10-06T10:54:39.107Z,12.00
2018-10-06T10:57:07.093Z,11.30
2018-10-06T10:59:35.245Z,8.70
2018-10-06T11:02:03.298Z,10.50
2018-10-06T11:04:31.327Z,9.50
2018-10-06T11:06:59.406Z,7.63
2018-10-06T11:09:27.506Z,9.27
2018-10-06T11:11:55.565Z,6.97
2018-10-06T11:14:23.674Z,10.23
2018-10-06T11:16:51.718Z,7.40
2018-10-06T11:19:19.798Z,8.03
2018-10-06T11:21:47.840Z,8.37
2018-10-06T11:24:15.897Z,14.93
2018-10-06T11:26:43.958Z,11.47
2018-10-06T11:29:12.080Z,6.60
2018-10-06T11:31:40.144Z,7.43
2018-10-06T11:34:08.222Z,9.23
2018-10-06T11:36:36.271Z,7.10
2018-10-06T11:39:05.501Z,8.07
2018-10-06T11:41:33.534Z,10.47
2018-10-06T11:44:01.644Z,7.70
2018-10-06T11:46:29.694Z,9.83
2018-10-06T11:48:57.780Z,8.53
2018-10-06T11:51:25.889Z,8.33
2018-10-06T11:53:53.929Z,7.77
2018-10-06T11:56:22.044Z,8.30
2018-10-06T11:58:50.104Z,9.57
2018-10-06T12:01:18.199Z,8.57
2018-10-06T12:03:46.279Z,8.47
2018-10-06T12:06:14.358Z,8.17
2018-10-06T12:08:42.449Z,7.93
2018-10-06T12:11:10.474Z,10.07
2018-10-06T12:13:38.554Z,7.60
2018-10-06T12:16:06.764Z,6.50
2018-10-06T12:18:35.350Z,10.13
2018-10-06T12:21:03.409Z,9.00
2018-10-06T12:23:31.472Z,7.37
2018-10-06T12:25:59.589Z,8.90
2018-10-06T12:28:27.708Z,7.77
2018-10-06T12:30:55.781Z,5.37
2018-10-06T12:33:23.898Z,9.47
2018-10-06T12:35:51.978Z,7.13
2018-10-06T12:38:20.039Z,7.80
2018-10-06T12:40:48.223Z,5.87
2018-10-06T12:43:16.342Z,8.07
2018-10-06T12:45:44.374Z,6.47
2018-10-06T12:48:12.443Z,7.00
2018-10-06T12:50:40.544Z,9.17
2018-10-06T12:53:08.643Z,7.70
2018-10-06T12:55:36.757Z,5.97
2018-10-06T12:58:05.126Z,8.03
2018-10-06T13:00:33.551Z,6.00
2018-10-06T13:03:01.928Z,5.77
2018-10-06T13:05:30.411Z,6.73
2018-10-06T13:07:58.907Z,7.10
2018-10-06T13:10:27.226Z,6.87
2018-10-06T13:12:56.378Z,6.33
2018-10-06T13:15:24.664Z,6.73
2018-10-06T13:17:52.950Z,5.90
2018-10-06T13:20:21.278Z,6.17
2018-10-06T13:22:49.647Z,5.97
2018-10-06T13:25:18.064Z,5.77
2018-10-06T13:27:46.447Z,5.77
2018-10-06T13:30:21.513Z,6.20
2018-10-06T13:32:50.437Z,6.23
2018-10-06T13:35:18.870Z,5.93
2018-10-06T13:37:47.204Z,6.27
2018-10-06T13:40:15.669Z,6.90
2018-10-06T13:42:43.974Z,9.53
2018-10-06T13:45:12.435Z,5.90
2018-10-06T13:47:40.823Z,5.70
2018-10-06T13:50:09.222Z,5.90
2018-10-06T13:52:37.559Z,5.93
2018-10-06T13:55:05.848Z,7.03
2018-10-06T13:57:34.228Z,6.50
2018-10-06T14:00:02.499Z,5.50
2018-10-06T14:02:30.869Z,6.50
2018-10-06T14:04:59.170Z,5.50
2018-10-06T14:07:27.538Z,5.53
2018-10-06T14:09:56.195Z,7.10
2018-10-06T14:12:24.461Z,5.67
2018-10-06T14:14:52.846Z,3.57
2018-10-06T14:17:21.252Z,8.93
2018-10-06T14:19:49.597Z,7.47
2018-10-06T14:22:18.414Z,5.63
2018-10-06T14:24:46.845Z,5.50
2018-10-06T14:27:15.266Z,6.10
2018-10-06T14:29:43.368Z,6.70
2018-10-06T14:32:11.506Z,5.17
2018-10-06T14:34:39.589Z,5.57
2018-10-06T14:37:07.715Z,3.87
2018-10-06T14:39:36.092Z,6.70
2018-10-06T14:42:04.445Z,4.63
2018-10-06T14:44:32.806Z,4.93
2018-10-06T14:47:01.178Z,4.77
2018-10-06T14:49:29.575Z,3.87
2018-10-06T14:51:57.984Z,5.47
2018-10-06T14:54:26.282Z,4.53
2018-10-06T14:56:54.758Z,6.17
2018-10-06T14:59:23.346Z,6.17
2018-10-06T15:01:52.778Z,6.73
2018-10-06T15:04:21.321Z,5.57
2018-10-06T15:06:49.407Z,7.80
2018-10-06T15:09:17.464Z,5.23
2018-10-06T15:11:45.565Z,5.13
2018-10-06T15:14:13.590Z,5.57
2018-10-06T15:16:41.621Z,6.57
2018-10-06T15:19:09.662Z,4.73
2018-10-06T15:21:37.705Z,4.57
2018-10-06T15:24:05.805Z,8.50
2018-10-06T15:26:33.903Z,8.90
2018-10-06T15:29:02.012Z,6.17
2018-10-06T15:31:30.113Z,8.23
2018-10-06T15:33:58.205Z,12.37
2018-10-06T15:36:26.266Z,10.27
2018-10-06T15:38:54.391Z,12.87
2018-10-06T15:41:22.471Z,9.23
2018-10-06T15:43:50.522Z,13.63
2018-10-06T15:46:18.554Z,8.30
2018-10-06T15:48:46.648Z,8.47
2018-10-06T15:51:14.703Z,7.87
2018-10-06T15:53:42.835Z,8.67
2018-10-06T15:56:10.927Z,7.83
2018-10-06T15:58:39.026Z,8.30
2018-10-06T16:01:07.134Z,7.00
2018-10-06T16:03:35.223Z,12.37
2018-10-06T16:06:03.384Z,9.17
2018-10-06T16:08:32.042Z,9.30
2018-10-06T16:11:00.455Z,10.47
2018-10-06T16:13:28.566Z,10.37
2018-10-06T16:15:56.747Z,11.43
2018-10-06T16:18:24.843Z,10.73
2018-10-06T16:20:53.000Z,14.17
2018-10-06T16:23:21.125Z,12.93
2018-10-06T16:25:49.294Z,18.47
2018-10-06T16:28:17.422Z,17.57
2018-10-06T16:30:45.512Z,26.47
2018-10-06T16:33:13.614Z,18.00
2018-10-06T16:35:41.709Z,15.40
2018-10-06T16:38:09.767Z,14.20
2018-10-06T16:40:37.893Z,11.20
2018-10-06T16:43:06.514Z,14.73
2018-10-06T16:45:34.558Z,12.80
2018-10-06T16:48:02.637Z,14.03
2018-10-06T16:50:30.791Z,14.73
2018-10-06T16:52:58.847Z,19.47
2018-10-06T16:55:26.959Z,20.07
2018-10-06T16:57:55.023Z,23.20
2018-10-06T17:00:23.173Z,22.30
2018-10-06T17:02:51.243Z,20.87
2018-10-06T17:05:19.356Z,18.37
2018-10-06T17:07:47.448Z,20.40
2018-10-06T17:10:15.536Z,20.40
2018-10-06T17:12:43.681Z,13.90
2018-10-06T17:15:11.788Z,15.47
2018-10-06T17:17:39.833Z,14.60
2018-10-06T17:20:07.918Z,13.30
2018-10-06T17:22:36.101Z,11.77
2018-10-06T17:25:04.210Z,10.57
2018-10-06T17:27:32.273Z,11.23
2018-10-06T17:30:00.354Z,11.07
2018-10-06T17:32:28.514Z,15.20
2018-10-06T17:34:56.569Z,16.07
2018-10-06T17:37:24.614Z,16.27
2018-10-06T17:39:52.707Z,19.33
2018-10-06T17:42:20.820Z,14.70
2018-10-06T17:44:48.912Z,12.87
2018-10-06T17:47:16.976Z,13.10
2018-10-06T17:49:45.064Z,12.20
2018-10-06T17:52:13.114Z,11.87
2018-10-06T17:54:41.235Z,13.07
2018-10-06T17:57:09.403Z,11.47
2018-10-06T17:59:37.485Z,15.93
2018-10-06T18:02:05.658Z,14.37
2018-10-06T18:04:33.693Z,13.70
2018-10-06T18:07:01.798Z,13.13
2018-10-06T18:09:29.917Z,15.33
2018-10-06T18:11:58.055Z,11.63
2018-10-06T18:14:26.266Z,16.20
2018-10-06T18:16:54.342Z,16.03
2018-10-06T18:19:22.570Z,15.93
2018-10-06T18:21:50.643Z,18.23
2018-10-06T18:24:18.711Z,14.17
2018-10-06T18:26:46.794Z,16.97
2018-10-06T18:29:14.932Z,15.87
2018-10-06T18:31:43.030Z,14.80
2018-10-06T18:34:11.116Z,17.57
2018-10-06T18:36:39.208Z,15.10
2018-10-06T18:39:07.830Z,13.60
2018-10-06T18:41:36.138Z,18.17
2018-10-06T18:44:04.200Z,16.17
2018-10-06T18:46:33.022Z,16.13
2018-10-06T18:49:01.187Z,14.23
2018-10-06T18:51:29.301Z,15.30
2018-10-06T18:53:57.381Z,16.73
2018-10-06T18:56:25.806Z,17.27
2018-10-06T18:58:53.907Z,17.80
2018-10-06T19:01:22.113Z,19.43
2018-10-06T19:03:50.347Z,14.93
2018-10-06T19:06:18.366Z,14.40
2018-10-06T19:08:46.489Z,24.17
2018-10-06T19:11:14.590Z,31.53
2018-10-06T19:13:42.713Z,21.50
2018-10-06T19:16:10.862Z,20.30
2018-10-06T19:18:38.945Z,20.17
2018-10-06T19:21:07.023Z,22.53
2018-10-06T19:23:35.171Z,21.20
2018-10-06T19:26:03.245Z,20.53
2018-10-06T19:28:31.305Z,21.03
2018-10-06T19:30:59.411Z,18.90
2018-10-06T19:33:27.530Z,16.97
2018-10-06T19:35:55.697Z,19.37
2018-10-06T19:38:23.890Z,16.93
2018-10-06T19:40:51.980Z,13.20
2018-10-06T19:43:20.034Z,18.70
2018-10-06T19:45:48.174Z,13.73
2018-10-06T19:48:16.258Z,18.43
2018-10-06T19:50:44.416Z,13.23
2018-10-06T19:53:13.092Z,12.77
2018-10-06T19:55:41.391Z,14.17
2018-10-06T19:58:09.573Z,15.00
2018-10-06T20:00:37.620Z,16.17
2018-10-06T20:03:05.982Z,14.97
2018-10-06T20:05:34.050Z,13.73
2018-10-06T20:08:02.152Z,13.43
2018-10-06T20:10:30.206Z,11.57
2018-10-06T20:12:58.919Z,10.63
2018-10-06T20:15:27.014Z,15.80
2018-10-06T20:17:55.131Z,14.93
2018-10-06T20:20:23.436Z,16.43
2018-10-06T20:22:52.336Z,12.93
2018-10-06T20:25:20.494Z,16.03
2018-10-06T20:27:50.621Z,13.67
2018-10-06T20:30:18.721Z,14.77
2018-10-06T20:32:46.939Z,13.77
2018-10-06T20:35:14.947Z,12.17
2018-10-06T20:37:43.309Z,15.47
2018-10-06T20:40:11.392Z,15.30
2018-10-06T20:42:39.448Z,12.30
2018-10-06T20:45:07.485Z,14.03
2018-10-06T20:47:35.510Z,12.70
2018-10-06T20:50:03.638Z,12.60
2018-10-06T20:52:31.687Z,13.97
2018-10-06T20:54:59.760Z,14.53
2018-10-06T20:57:27.798Z,13.23
2018-10-06T20:59:55.913Z,13.50
2018-10-06T21:02:23.943Z,14.90
2018-10-06T21:04:52.007Z,13.43
2018-10-06T21:07:21.215Z,16.20
2018-10-06T21:09:49.302Z,12.40
2018-10-06T21:12:17.325Z,12.97
2018-10-06T21:14:45.406Z,12.93
2018-10-06T21:17:13.425Z,17.53
2018-10-06T21:19:41.545Z,11.57
2018-10-06T21:22:09.645Z,15.40
2018-10-06T21:24:38.162Z,14.30
2018-10-06T21:27:06.189Z,14.07
2018-10-06T21:29:34.433Z,12.83
2018-10-06T21:32:02.388Z,14.63
2018-10-06T21:34:30.422Z,13.37
2018-10-06T21:36:58.590Z,13.30
2018-10-06T21:39:26.902Z,12.27
2018-10-06T21:41:55.196Z,14.13
2018-10-06T21:44:23.281Z,14.80
2018-10-06T21:46:51.334Z,15.87
2018-10-06T21:49:19.466Z,16.87
2018-10-06T21:51:47.563Z,12.83
2018-10-06T21:54:15.596Z,12.40
2018-10-06T21:56:43.650Z,15.43
2018-10-06T21:59:11.747Z,13.83
2018-10-06T22:01:39.810Z,13.73
2018-10-06T22:04:07.857Z,15.27
2018-10-06T22:06:35.953Z,17.20
2018-10-06T22:09:04.242Z,13.73
2018-10-06T22:11:32.344Z,14.47
2018-10-06T22:14:00.388Z,13.50
2018-10-06T22:16:28.448Z,13.00
2018-10-06T22:18:56.554Z,12.80
2018-10-06T22:21:24.659Z,12.80
2018-10-06T22:23:52.805Z,14.70
2018-10-06T22:26:21.141Z,13.80
2018-10-06T22:28:50.109Z,11.93
2018-10-06T22:31:18.365Z,13.70
2018-10-06T22:33:47.289Z,14.30
2018-10-06T22:36:15.461Z,11.43
2018-10-06T22:38:44.042Z,13.53
2018-10-06T22:41:12.128Z,13.53
2018-10-06T22:43:40.286Z,12.73
2018-10-06T22:46:08.360Z,13.17
2018-10-06T22:48:36.423Z,13.63
2018-10-06T22:51:05.262Z,14.13
2018-10-06T22:53:33.313Z,10.53
2018-10-06T22:56:01.469Z,13.90
2018-10-06T22:58:29.632Z,12.83
2018-10-06T23:00:57.722Z,15.57
2018-10-06T23:03:25.846Z,15.00
2018-10-06T23:05:53.923Z,15.80
2018-10-06T23:08:22.026Z,15.03
2018-10-06T23:10:50.109Z,12.37
2018-10-06T23:13:18.204Z,14.93
2018-10-06T23:15:46.258Z,13.40
2018-10-06T23:18:14.357Z,12.83
2018-10-06T23:20:42.393Z,10.70
2018-10-06T23:23:10.445Z,11.83
2018-10-06T23:25:38.549Z,13.63
2018-10-06T23:28:06.619Z,9.70
2018-10-06T23:30:34.794Z,12.13
2018-10-06T23:33:02.863Z,12.17
2018-10-06T23:35:30.977Z,10.73
2018-10-06T23:37:59.243Z,14.50
2018-10-06T23:40:27.284Z,13.20
2018-10-06T23:42:55.403Z,11.70
2018-10-06T23:45:23.450Z,13.43
2018-10-06T23:47:51.507Z,10.43
2018-10-06T23:50:19.611Z,10.83
2018-10-06T23:52:47.659Z,12.83
2018-10-06T23:55:15.810Z,11.60
2018-10-06T23:57:43.875Z,12.83
